createdAt,value
2023-01-01T00:00:49.734Z,9.90
2023-01-01T00:03:19.051Z,10.13
2023-01-01T00:05:50.807Z,8.63
2023-01-01T00:08:18.968Z,10.23
2023-01-01T00:10:47.289Z,13.27
2023-01-01T00:13:18.469Z,5.50
2023-01-01T00:15:47.218Z,3.55
2023-01-01T00:18:15.324Z,2.33
2023-01-01T00:20:43.901Z,3.42
2023-01-01T00:23:14.233Z,2.78
2023-01-01T00:25:42.660Z,3.20
2023-01-01T00:28:12.862Z,3.08
2023-01-01T00:33:10.453Z,2.42
2023-01-01T00:35:38.641Z,4.70
2023-01-01T00:38:07.097Z,5.15
2023-01-01T00:40:36.966Z,4.93
2023-01-01T00:43:05.293Z,5.88
2023-01-01T00:45:33.506Z,4.18
2023-01-01T00:48:01.703Z,4.55
2023-01-01T00:50:30.752Z,4.20
2023-01-01T00:52:58.909Z,3.58
2023-01-01T00:55:26.984Z,4.15
2023-01-01T00:57:56.387Z,3.42
2023-01-01T01:00:24.749Z,3.60
2023-01-01T01:02:52.903Z,2.15
2023-01-01T01:05:20.956Z,1.85
2023-01-01T01:07:49.467Z,1.48
2023-01-01T01:10:21.602Z,1.25
2023-01-01T01:12:50.052Z,1.00
2023-01-01T01:15:20.904Z,0.55
2023-01-01T01:17:49.201Z,0.90
2023-01-01T01:20:17.569Z,0.43
2023-01-01T01:22:46.214Z,0.85
2023-01-01T01:25:14.391Z,1.17
2023-01-01T01:27:42.875Z,0.80
2023-01-01T01:30:20.814Z,0.55
2023-01-01T01:32:49.763Z,0.50
2023-01-01T01:35:18.226Z,1.08
2023-01-01T01:37:47.277Z,0.38
2023-01-01T01:40:17.745Z,0.60
2023-01-01T01:42:49.719Z,0.30
2023-01-01T01:45:21.371Z,0.30
2023-01-01T01:47:53.633Z,0.30
2023-01-01T01:50:27.374Z,0.20
2023-01-01T01:53:06.225Z,0.28
2023-01-01T01:55:37.260Z,0.22
2023-01-01T01:58:17.104Z,0.30
2023-01-01T02:00:51.612Z,0.35
2023-01-01T02:03:30.864Z,0.30
2023-01-01T02:06:03.127Z,0.20
2023-01-01T02:08:33.177Z,0.40
2023-01-01T02:11:03.028Z,0.20
2023-01-01T02:13:35.373Z,0.30
2023-01-01T02:16:13.509Z,0.25
2023-01-01T02:18:54.576Z,0.30
2023-01-01T02:21:29.127Z,0.30
2023-01-01T02:24:20.971Z,0.68
2023-01-01T02:26:55.815Z,0.50
2023-01-01T02:29:48.036Z,0.30
2023-01-01T02:32:23.791Z,0.55
2023-01-01T02:35:08.459Z,0.40
2023-01-01T02:37:39.401Z,0.50
2023-01-01T02:42:42.107Z,0.40
2023-01-01T02:45:18.031Z,0.40
2023-01-01T02:47:49.459Z,0.30
2023-01-01T02:50:24.062Z,0.40
2023-01-01T02:53:08.732Z,0.38
2023-01-01T02:55:50.631Z,0.40
2023-01-01T02:58:46.591Z,0.43
2023-01-01T03:01:26.785Z,0.35
2023-01-01T03:04:16.087Z,0.65
2023-01-01T03:06:57.532Z,0.40
2023-01-01T03:09:39.941Z,0.50
2023-01-01T03:12:18.426Z,0.30
2023-01-01T03:14:56.714Z,0.38
2023-01-01T03:20:31.002Z,0.65
2023-01-01T03:23:05.089Z,0.85
2023-01-01T03:25:42.979Z,1.55
2023-01-01T03:28:25.608Z,2.60
2023-01-01T03:30:56.281Z,2.38
2023-01-01T03:33:34.612Z,1.60
2023-01-01T03:36:08.810Z,1.65
2023-01-01T03:38:42.635Z,0.80
2023-01-01T03:41:16.864Z,0.55
2023-01-01T03:43:54.812Z,0.50
2023-01-01T03:46:27.995Z,0.30
2023-01-01T03:49:06.886Z,0.60
2023-01-01T03:51:55.384Z,0.30
2023-01-01T03:54:36.098Z,0.40
2023-01-01T03:57:15.422Z,0.25
2023-01-01T03:59:54.574Z,0.60
2023-01-01T04:02:30.019Z,0.47
2023-01-01T04:05:03.064Z,0.70
2023-01-01T04:07:32.527Z,0.80
2023-01-01T04:10:19.582Z,0.95
2023-01-01T04:12:49.708Z,1.27
2023-01-01T04:17:47.055Z,0.80
2023-01-01T04:20:17.656Z,0.77
2023-01-01T04:22:46.095Z,0.88
2023-01-01T04:25:15.512Z,0.52
2023-01-01T04:27:47.015Z,0.80
2023-01-01T04:30:16.140Z,0.80
2023-01-01T04:32:44.492Z,0.50
2023-01-01T04:35:14.280Z,0.60
2023-01-01T04:37:46.182Z,0.88
2023-01-01T04:40:30.217Z,0.75
2023-01-01T04:42:59.412Z,0.80
2023-01-01T04:45:29.040Z,1.20
2023-01-01T04:50:25.578Z,1.15
2023-01-01T04:52:55.098Z,1.15
2023-01-01T04:55:23.467Z,0.95
2023-01-01T04:57:52.321Z,1.27
2023-01-01T05:00:23.568Z,1.30
2023-01-01T05:02:51.739Z,0.90
2023-01-01T05:05:19.971Z,0.98
2023-01-01T05:07:48.350Z,0.82
2023-01-01T05:10:18.227Z,1.38
2023-01-01T05:12:46.942Z,1.33
2023-01-01T05:15:15.374Z,1.30
2023-01-01T05:17:46.091Z,1.70
2023-01-01T05:20:14.474Z,1.40
2023-01-01T05:22:42.574Z,1.10
2023-01-01T05:25:11.191Z,1.20
2023-01-01T05:27:40.859Z,1.00
2023-01-01T05:30:10.487Z,1.30
2023-01-01T05:32:39.447Z,1.40
2023-01-01T05:35:13.209Z,1.38
2023-01-01T05:37:42.379Z,1.73
2023-01-01T05:40:11.960Z,1.30
2023-01-01T05:42:42.232Z,1.38
2023-01-01T05:45:13.779Z,1.15
2023-01-01T05:47:42.007Z,1.45
2023-01-01T05:52:38.991Z,1.23
2023-01-01T05:55:08.233Z,1.30
2023-01-01T05:57:36.333Z,1.30
2023-01-01T06:00:08.613Z,1.40
2023-01-01T06:02:37.029Z,1.40
2023-01-01T06:05:06.067Z,1.20
2023-01-01T06:07:34.698Z,1.20
2023-01-01T06:10:03.086Z,1.33
2023-01-01T06:12:31.605Z,1.23
2023-01-01T06:15:00.000Z,1.23
2023-01-01T06:17:29.600Z,1.45
2023-01-01T06:19:57.734Z,1.00
2023-01-01T06:22:27.682Z,1.50
2023-01-01T06:24:55.936Z,1.30
2023-01-01T06:27:24.018Z,1.48
2023-01-01T06:29:52.659Z,1.75
2023-01-01T06:32:21.042Z,1.92
2023-01-01T06:34:51.677Z,1.95
2023-01-01T06:37:20.047Z,1.52
2023-01-01T06:39:48.296Z,1.95
2023-01-01T06:42:17.151Z,1.70
2023-01-01T06:44:45.303Z,1.67
2023-01-01T06:47:13.845Z,1.67
2023-01-01T06:49:42.454Z,1.85
2023-01-01T06:52:12.338Z,1.58
2023-01-01T06:54:40.543Z,1.80
2023-01-01T06:57:08.669Z,2.17
2023-01-01T06:59:36.787Z,1.92
2023-01-01T07:02:05.351Z,2.05
2023-01-01T07:04:33.669Z,2.38
2023-01-01T07:07:02.231Z,3.33
2023-01-01T07:09:34.444Z,2.58
2023-01-01T07:12:02.469Z,2.20
2023-01-01T07:14:30.796Z,2.97
2023-01-01T07:17:06.140Z,3.35
2023-01-01T07:19:34.417Z,2.40
2023-01-01T07:22:02.536Z,2.42
2023-01-01T07:24:32.803Z,2.20
2023-01-01T07:27:01.370Z,2.25
2023-01-01T07:29:31.202Z,2.00
2023-01-01T07:32:00.893Z,2.47
2023-01-01T07:34:29.405Z,3.35
2023-01-01T07:36:58.071Z,2.78
2023-01-01T07:39:26.236Z,3.17
2023-01-01T07:41:55.868Z,3.20
2023-01-01T07:44:30.036Z,2.17
2023-01-01T07:47:05.210Z,2.55
2023-01-01T07:49:34.129Z,2.85
2023-01-01T07:52:02.741Z,2.78
2023-01-01T07:54:31.096Z,2.67
2023-01-01T07:57:00.954Z,2.40
2023-01-01T07:59:30.446Z,2.60
2023-01-01T08:01:58.604Z,2.90
2023-01-01T08:04:27.046Z,2.97
2023-01-01T08:06:57.466Z,2.55
2023-01-01T08:09:26.159Z,2.75
2023-01-01T08:12:00.359Z,2.83
2023-01-01T08:14:30.447Z,2.40
2023-01-01T08:19:27.112Z,3.05
2023-01-01T08:21:55.115Z,2.70
2023-01-01T08:24:23.493Z,2.95
2023-01-01T08:26:52.089Z,3.22
2023-01-01T08:29:22.533Z,2.78
2023-01-01T08:31:52.323Z,3.17
2023-01-01T08:34:20.498Z,2.38
2023-01-01T08:36:48.787Z,2.78
2023-01-01T08:39:17.383Z,2.92
2023-01-01T08:41:45.792Z,2.50
2023-01-01T08:44:13.906Z,2.30
2023-01-01T08:46:42.025Z,2.00
2023-01-01T08:49:11.791Z,3.00
2023-01-01T08:51:40.109Z,2.25
2023-01-01T08:54:09.728Z,2.45
2023-01-01T08:56:38.867Z,2.22
2023-01-01T08:59:07.547Z,2.97
2023-01-01T09:01:37.978Z,3.38
2023-01-01T09:04:16.004Z,2.72
2023-01-01T09:06:46.035Z,2.63
2023-01-01T09:09:14.420Z,2.90
2023-01-01T09:11:52.379Z,2.85
2023-01-01T09:14:20.992Z,2.47
2023-01-01T09:16:50.672Z,2.63
2023-01-01T09:19:28.096Z,3.60
2023-01-01T09:21:58.069Z,2.92
2023-01-01T09:24:26.285Z,2.60
2023-01-01T09:26:54.609Z,2.55
2023-01-01T09:29:24.127Z,2.75
2023-01-01T09:31:53.719Z,3.40
2023-01-01T09:34:21.911Z,3.00
2023-01-01T09:36:50.120Z,3.47
2023-01-01T09:39:19.846Z,2.90
2023-01-01T09:42:02.368Z,3.42
2023-01-01T09:44:55.100Z,2.80
2023-01-01T09:47:28.640Z,2.22
2023-01-01T09:50:04.761Z,2.28
2023-01-01T09:52:44.371Z,3.13
2023-01-01T09:55:25.077Z,3.30
2023-01-01T09:57:53.289Z,2.92
2023-01-01T10:00:21.913Z,3.53
2023-01-01T10:03:09.569Z,2.67
2023-01-01T10:05:48.474Z,2.58
2023-01-01T10:08:29.113Z,3.45
2023-01-01T10:11:09.842Z,2.75
2023-01-01T10:13:42.202Z,3.03
2023-01-01T10:16:24.257Z,2.35
2023-01-01T10:18:56.843Z,3.22
2023-01-01T10:21:28.726Z,1.20
2023-01-01T10:24:01.006Z,0.80
2023-01-01T10:26:33.885Z,0.20
2023-01-01T10:29:09.079Z,0.57
2023-01-01T10:31:40.203Z,0.70
2023-01-01T10:34:18.547Z,0.70
2023-01-01T10:36:47.933Z,0.68
2023-01-01T10:39:18.430Z,0.75
2023-01-01T10:41:54.760Z,1.02
2023-01-01T10:44:30.679Z,0.68
2023-01-01T10:47:00.848Z,1.00
2023-01-01T10:51:59.567Z,0.80
2023-01-01T10:54:36.729Z,0.60
2023-01-01T10:57:21.439Z,0.68
2023-01-01T10:59:54.164Z,0.60
2023-01-01T11:02:28.262Z,1.30
2023-01-01T11:05:21.023Z,0.65
2023-01-01T11:07:51.837Z,0.60
2023-01-01T11:10:23.708Z,0.70
2023-01-01T11:13:06.357Z,0.70
2023-01-01T11:15:40.471Z,0.90
2023-01-01T11:18:17.637Z,0.55
2023-01-01T11:20:53.777Z,0.95
2023-01-01T11:23:39.960Z,0.68
2023-01-01T11:26:27.964Z,0.68
2023-01-01T11:29:22.780Z,0.73
2023-01-01T11:31:51.406Z,0.80
2023-01-01T11:34:30.181Z,1.15
2023-01-01T11:37:25.434Z,1.00
2023-01-01T11:39:57.618Z,1.02
2023-01-01T11:42:28.402Z,1.00
2023-01-01T11:45:01.973Z,1.30
2023-01-01T11:47:33.643Z,1.45
2023-01-01T11:50:09.285Z,2.55
2023-01-01T11:52:40.996Z,5.65
2023-01-01T11:55:19.587Z,3.28
2023-01-01T11:57:57.730Z,2.15
2023-01-01T12:00:32.039Z,3.08
2023-01-01T12:03:02.944Z,2.42
2023-01-01T12:05:44.675Z,1.75
2023-01-01T12:08:19.009Z,2.00
2023-01-01T12:11:05.637Z,2.00
2023-01-01T12:13:49.005Z,2.38
2023-01-01T12:16:21.748Z,1.52
2023-01-01T12:18:59.793Z,1.33
2023-01-01T12:21:29.663Z,0.80
2023-01-01T12:24:01.337Z,1.52
2023-01-01T12:26:39.049Z,2.53
2023-01-01T12:29:48.113Z,1.83
2023-01-01T12:33:05.667Z,1.13
2023-01-01T12:36:07.915Z,0.90
2023-01-01T12:41:14.987Z,0.70
2023-01-01T12:43:51.148Z,0.50
2023-01-01T12:46:34.708Z,0.68
2023-01-01T12:49:24.958Z,2.50
2023-01-01T12:52:04.224Z,1.75
2023-01-01T12:55:11.135Z,1.93
2023-01-01T12:57:45.429Z,1.23
2023-01-01T13:00:17.918Z,1.88
2023-01-01T13:02:51.647Z,1.23
2023-01-01T13:05:25.942Z,1.25
2023-01-01T13:08:01.775Z,1.10
2023-01-01T13:10:35.181Z,1.60
2023-01-01T13:13:04.729Z,1.20
2023-01-01T13:15:49.088Z,1.88
2023-01-01T13:18:27.141Z,1.23
2023-01-01T13:21:25.896Z,1.50
2023-01-01T13:23:58.954Z,1.23
2023-01-01T13:26:40.887Z,1.10
2023-01-01T13:29:35.658Z,1.23
2023-01-01T13:32:07.944Z,0.80
2023-01-01T13:35:06.165Z,1.50
2023-01-01T13:37:49.802Z,1.77
2023-01-01T13:40:55.922Z,1.05
2023-01-01T13:43:29.404Z,0.80
2023-01-01T13:46:13.923Z,1.27
2023-01-01T13:49:22.739Z,3.50
2023-01-01T13:52:15.575Z,1.90
2023-01-01T13:55:06.462Z,1.10
2023-01-01T13:58:06.063Z,1.27
2023-01-01T14:00:49.379Z,1.00
2023-01-01T14:03:20.466Z,0.93
2023-01-01T14:05:52.804Z,1.40
2023-01-01T14:08:35.108Z,3.38
2023-01-01T14:11:20.861Z,6.18
2023-01-01T14:13:49.974Z,3.42
2023-01-01T14:16:19.295Z,1.83
2023-01-01T14:18:50.927Z,2.05
2023-01-01T14:21:21.976Z,2.17
2023-01-01T14:23:53.032Z,2.15
2023-01-01T14:26:25.437Z,2.00
2023-01-01T14:28:56.374Z,2.78
2023-01-01T14:31:28.495Z,2.70
2023-01-01T14:33:58.775Z,2.65
2023-01-01T14:38:58.127Z,3.42
2023-01-01T14:41:30.961Z,3.60
2023-01-01T14:44:07.411Z,3.92
2023-01-01T14:46:41.642Z,3.20
2023-01-01T14:49:12.301Z,2.60
2023-01-01T14:51:46.550Z,3.20
2023-01-01T14:54:21.003Z,2.70
2023-01-01T14:56:55.840Z,3.00
2023-01-01T14:59:29.147Z,3.58
2023-01-01T15:02:04.503Z,3.45
2023-01-01T15:04:33.551Z,3.00
2023-01-01T15:07:05.361Z,3.58
2023-01-01T15:09:34.868Z,2.80
2023-01-01T15:12:05.073Z,2.67
2023-01-01T15:17:05.994Z,2.88
2023-01-01T15:19:36.712Z,2.90
2023-01-01T15:22:11.156Z,3.33
2023-01-01T15:24:41.145Z,5.20
2023-01-01T15:27:23.016Z,5.35
2023-01-01T15:29:51.780Z,4.38
2023-01-01T15:32:27.418Z,3.88
2023-01-01T15:34:57.873Z,4.93
2023-01-01T15:37:33.505Z,5.55
2023-01-01T15:40:05.280Z,5.72
2023-01-01T15:42:37.888Z,5.70
2023-01-01T15:45:30.450Z,6.28
2023-01-01T15:48:13.616Z,6.53
2023-01-01T15:51:00.821Z,5.45
2023-01-01T15:53:47.188Z,4.82
2023-01-01T15:56:17.231Z,4.13
2023-01-01T15:58:54.272Z,4.05
2023-01-01T16:01:25.029Z,4.53
2023-01-01T16:04:03.149Z,4.65
2023-01-01T16:06:32.128Z,9.90
2023-01-01T16:09:03.042Z,10.48
2023-01-01T16:11:31.218Z,9.95
2023-01-01T16:14:08.231Z,9.60
2023-01-01T16:16:38.324Z,12.88
2023-01-01T16:21:37.794Z,12.40
2023-01-01T16:24:11.269Z,10.65
2023-01-01T16:26:39.416Z,13.40
2023-01-01T16:29:08.859Z,10.73
2023-01-01T16:31:37.319Z,8.27
2023-01-01T16:34:06.134Z,10.13
2023-01-01T16:36:36.075Z,8.80
2023-01-01T16:39:04.609Z,9.70
2023-01-01T16:41:32.766Z,13.05
2023-01-01T16:44:01.029Z,13.52
2023-01-01T16:46:30.991Z,11.48
2023-01-01T16:48:59.125Z,9.45
2023-01-01T16:51:30.368Z,9.73
2023-01-01T16:54:01.044Z,9.95
2023-01-01T16:56:31.496Z,10.70
2023-01-01T16:59:03.481Z,9.38
2023-01-01T17:01:48.804Z,8.68
2023-01-01T17:04:21.316Z,12.52
2023-01-01T17:06:52.081Z,9.07
2023-01-01T17:09:20.528Z,9.35
2023-01-01T17:11:49.997Z,9.10
2023-01-01T17:14:18.304Z,10.70
2023-01-01T17:16:47.997Z,10.57
2023-01-01T17:19:19.479Z,10.27
2023-01-01T17:21:50.083Z,9.82
2023-01-01T17:24:20.773Z,9.48
2023-01-01T17:26:53.012Z,10.18
2023-01-01T17:29:21.986Z,9.23
2023-01-01T17:31:52.141Z,11.13
2023-01-01T17:36:50.889Z,9.13
2023-01-01T17:39:18.950Z,9.63
2023-01-01T17:41:47.091Z,10.30
2023-01-01T17:44:15.272Z,10.52
2023-01-01T17:49:36.465Z,11.68
2023-01-01T17:52:05.037Z,20.00
2023-01-01T17:54:33.272Z,26.60
2023-01-01T17:57:03.711Z,20.83
2023-01-01T17:59:32.600Z,18.10
2023-01-01T18:02:01.091Z,19.60
2023-01-01T18:04:29.381Z,18.65
2023-01-01T18:07:04.351Z,16.80
2023-01-01T18:09:37.068Z,35.28
2023-01-01T18:12:06.517Z,24.48
2023-01-01T18:14:34.889Z,18.33
2023-01-01T18:17:03.151Z,17.27
2023-01-01T18:19:32.527Z,23.50
2023-01-01T18:22:02.507Z,21.40
2023-01-01T18:24:31.935Z,19.73
2023-01-01T18:27:00.809Z,15.80
2023-01-01T18:29:29.322Z,11.25
2023-01-01T18:32:02.127Z,12.85
2023-01-01T18:34:36.544Z,13.10
2023-01-01T18:37:06.608Z,13.93
2023-01-01T18:39:42.061Z,11.98
2023-01-01T18:42:35.431Z,10.48
2023-01-01T18:45:18.779Z,8.35
2023-01-01T18:47:47.502Z,12.30
2023-01-01T18:50:24.049Z,13.40
2023-01-01T18:52:58.020Z,12.57
2023-01-01T18:55:28.366Z,14.45
2023-01-01T18:58:01.403Z,15.57
2023-01-01T19:00:37.266Z,12.63
2023-01-01T19:03:13.075Z,11.25
2023-01-01T19:05:41.785Z,12.68
2023-01-01T19:08:25.837Z,11.48
2023-01-01T19:10:58.126Z,13.43
2023-01-01T19:13:35.361Z,13.20
2023-01-01T19:16:27.748Z,11.20
2023-01-01T19:19:03.113Z,10.52
2023-01-01T19:21:31.629Z,11.80
2023-01-01T19:24:06.990Z,13.77
2023-01-01T19:26:39.378Z,16.77
2023-01-01T19:29:17.175Z,18.88
2023-01-01T19:31:48.971Z,17.05
2023-01-01T19:34:18.500Z,17.77
2023-01-01T19:36:47.535Z,16.05
2023-01-01T19:39:18.815Z,15.73
2023-01-01T19:41:47.733Z,14.35
2023-01-01T19:44:21.373Z,14.20
2023-01-01T19:46:56.812Z,11.88
2023-01-01T19:49:27.194Z,12.13
2023-01-01T19:51:55.529Z,13.70
2023-01-01T19:54:29.867Z,14.25
2023-01-01T19:57:02.460Z,11.55
2023-01-01T19:59:33.823Z,10.07
2023-01-01T20:02:43.600Z,11.35
2023-01-01T20:04:52.316Z,10.27
2023-01-01T20:07:20.916Z,10.60
2023-01-01T20:09:51.048Z,10.82
2023-01-01T20:14:48.182Z,10.40
2023-01-01T20:17:22.329Z,11.23
2023-01-01T20:19:51.407Z,11.82
2023-01-01T20:22:22.112Z,10.60
2023-01-01T20:24:52.904Z,11.23
2023-01-01T20:27:24.512Z,11.05
2023-01-01T20:29:53.148Z,9.63
2023-01-01T20:32:21.452Z,11.95
2023-01-01T20:34:50.787Z,11.70
2023-01-01T20:37:36.225Z,12.57
2023-01-01T20:40:12.502Z,10.43
2023-01-01T20:42:43.677Z,11.63
2023-01-01T20:45:12.777Z,12.00
2023-01-01T20:47:44.853Z,12.50
2023-01-01T20:50:13.253Z,14.73
2023-01-01T20:52:42.728Z,10.85
2023-01-01T20:55:15.048Z,9.43
2023-01-01T20:57:43.883Z,8.25
2023-01-01T21:00:16.535Z,9.30
2023-01-01T21:02:48.753Z,10.15
2023-01-01T21:05:19.918Z,9.40
2023-01-01T21:07:48.864Z,8.52
2023-01-01T21:10:21.976Z,9.18
2023-01-01T21:12:53.850Z,9.02
2023-01-01T21:15:22.459Z,6.93
2023-01-01T21:17:53.694Z,6.70
2023-01-01T21:20:45.806Z,6.22
2023-01-01T21:23:22.019Z,6.05
2023-01-01T21:25:52.901Z,5.72
2023-01-01T21:28:21.750Z,5.20
2023-01-01T21:30:52.224Z,4.45
2023-01-01T21:33:28.089Z,5.70
2023-01-01T21:35:59.010Z,5.75
2023-01-01T21:38:28.603Z,5.32
2023-01-01T21:41:00.686Z,6.95
2023-01-01T21:43:41.026Z,7.95
2023-01-01T21:46:27.161Z,7.97
2023-01-01T21:49:01.781Z,7.85
2023-01-01T21:51:34.156Z,9.00
2023-01-01T21:54:24.116Z,7.18
2023-01-01T21:57:00.500Z,6.70
2023-01-01T21:59:40.000Z,8.70
2023-01-01T22:05:31.106Z,5.55
2023-01-01T22:08:00.308Z,5.22
2023-01-01T22:10:41.054Z,5.53
2023-01-01T22:13:43.342Z,5.30
2023-01-01T22:16:22.203Z,4.95
2023-01-01T22:18:57.952Z,6.10
2023-01-01T22:21:28.241Z,5.40
2023-01-01T22:24:01.235Z,5.97
2023-01-01T22:26:32.554Z,5.82
2023-01-01T22:29:04.183Z,6.22
2023-01-01T22:31:36.498Z,5.97
2023-01-01T22:34:15.151Z,4.15
2023-01-01T22:36:44.518Z,4.88
2023-01-01T22:39:21.936Z,4.60
2023-01-01T22:41:55.212Z,4.30
2023-01-01T22:44:27.197Z,4.03
2023-01-01T22:47:01.823Z,4.07
2023-01-01T22:49:36.413Z,4.28
2023-01-01T22:52:05.228Z,4.25
2023-01-01T22:54:34.557Z,4.50
2023-01-01T22:57:06.562Z,4.80
2023-01-01T22:59:36.047Z,4.72
2023-01-01T23:02:06.851Z,4.93
2023-01-01T23:04:36.062Z,5.07
2023-01-01T23:07:06.512Z,4.07
2023-01-01T23:09:42.670Z,3.90
2023-01-01T23:12:13.902Z,4.93
2023-01-01T23:15:02.271Z,5.10
2023-01-01T23:17:34.766Z,4.10
2023-01-01T23:20:05.000Z,5.97
2023-01-01T23:22:38.527Z,5.32
2023-01-01T23:25:09.176Z,4.07
2023-01-01T23:27:40.175Z,4.47
2023-01-01T23:30:10.301Z,4.75
2023-01-01T23:35:10.733Z,3.35
2023-01-01T23:37:40.069Z,4.03
2023-01-01T23:40:10.315Z,4.40
2023-01-01T23:42:39.104Z,3.63
2023-01-01T23:45:18.142Z,3.97
2023-01-01T23:47:53.139Z,4.32
2023-01-01T23:50:21.928Z,4.35
2023-01-01T23:52:52.720Z,3.63
2023-01-01T23:55:20.870Z,3.58
2023-01-01T23:57:51.654Z,4.18
